Time;durP1;ratioP1;P1;durP2;ratioP2;P2;SDS_P1;SDS_P2;PMS_P1;PMS_P2;Temp;Humidity;BMP_temperature;BMP_pressure;BME280_temperature;BME280_humidity;BME280_pressure;Samples;Min_cycle;Max_cycle;Signal;HPM_P1;HPM_P2
2022/12/14 00:01:11;;;;;;;44.83;24.65;;;-2.90;99.90;;;;;;5026410;28;20525;-75
2022/12/14 00:03:37;;;;;;;44.22;24.00;;;-2.20;99.90;;;;;;5025760;28;20138;-74
2022/12/14 00:06:21;;;;;;;43.80;23.90;;;-2.90;99.90;;;;;;4993491;28;20079;-75
2022/12/14 00:08:48;;;;;;;43.17;24.30;;;-2.90;99.90;;;;;;5025938;28;20068;-75
2022/12/14 00:11:14;;;;;;;43.88;23.33;;;-2.90;99.90;;;;;;5006659;28;20052;-74
2022/12/14 00:13:41;;;;;;;45.50;23.95;;;-2.90;99.90;;;;;;5011102;28;20033;-75
2022/12/14 00:16:13;;;;;;;49.78;25.58;;;-2.90;99.90;;;;;;5029544;28;20060;-75
2022/12/14 00:18:40;;;;;;;45.17;24.25;;;-2.90;99.90;;;;;;5008713;28;20045;-75
2022/12/14 00:21:08;;;;;;;44.42;24.65;;;-2.90;99.90;;;;;;5007488;28;20103;-75
2022/12/14 00:23:35;;;;;;;44.25;24.40;;;-3.00;99.90;;;;;;5026377;28;21497;-73
2022/12/14 00:26:13;;;;;;;42.30;23.42;;;-3.00;99.90;;;;;;5025802;28;20063;-75
2022/12/14 00:28:39;;;;;;;43.85;24.40;;;-3.00;99.90;;;;;;5033304;28;20049;-75
2022/12/14 00:31:06;;;;;;;41.22;23.30;;;-3.10;99.90;;;;;;5024334;28;20047;-75
2022/12/14 00:33:32;;;;;;;45.10;24.02;;;-3.60;99.90;;;;;;5009683;28;20063;-73
2022/12/14 00:35:59;;;;;;;46.95;24.75;;;-3.20;99.90;;;;;;5012872;28;20061;-74
2022/12/14 00:38:25;;;;;;;41.17;23.35;;;-3.10;99.90;;;;;;5010911;28;20124;-75
2022/12/14 00:40:53;;;;;;;47.08;24.70;;;-3.20;99.90;;;;;;4996928;28;20139;-75
2022/12/14 00:43:19;;;;;;;43.50;23.30;;;-2.20;99.90;;;;;;4996664;28;20037;-75
2022/12/14 00:45:45;;;;;;;47.97;24.38;;;-2.40;99.90;;;;;;5011434;28;20807;-76
2022/12/14 00:48:11;;;;;;;41.50;24.48;;;-2.70;99.90;;;;;;5029749;28;20040;-75
2022/12/14 00:50:38;;;;;;;43.58;23.15;;;-3.40;99.90;;;;;;5012839;28;20041;-75
2022/12/14 00:53:04;;;;;;;44.10;24.20;;;-2.80;99.90;;;;;;5029141;28;20064;-75
2022/12/14 00:55:35;;;;;;;43.40;23.88;;;-3.40;99.90;;;;;;5029405;28;20504;-75
2022/12/14 00:58:03;;;;;;;41.88;23.48;;;-2.90;99.90;;;;;;5030559;28;20048;-74
2022/12/14 01:00:29;;;;;;;43.25;22.80;;;-3.60;99.90;;;;;;4997266;28;20367;-74
2022/12/14 01:02:55;;;;;;;44.25;24.92;;;-3.60;99.90;;;;;;5011402;28;20040;-73
2022/12/14 01:05:20;;;;;;;45.10;23.83;;;-3.50;99.90;;;;;;4994653;28;20118;-75
2022/12/14 01:07:46;;;;;;;40.42;22.42;;;-2.10;99.90;;;;;;5030028;28;20049;-73
2022/12/14 01:10:12;;;;;;;46.53;23.63;;;-2.30;99.90;;;;;;5028721;28;20111;-74
2022/12/14 01:12:37;;;;;;;44.42;23.38;;;-3.60;99.90;;;;;;5013187;28;20040;-75
2022/12/14 01:15:04;;;;;;;41.85;22.95;;;-3.60;99.90;;;;;;5012449;28;20391;-74
2022/12/14 01:17:30;;;;;;;42.13;23.33;;;-3.70;99.90;;;;;;5026541;28;20040;-75
2022/12/14 01:19:58;;;;;;;44.53;22.63;;;-3.70;99.90;;;;;;4996007;28;20083;-74
2022/12/14 01:22:24;;;;;;;43.47;22.80;;;-2.40;99.90;;;;;;5028451;28;21907;-75
2022/12/14 01:24:50;;;;;;;42.33;23.42;;;-3.80;99.90;;;;;;5011234;28;20048;-74
2022/12/14 01:27:15;;;;;;;43.58;24.17;;;-3.40;99.90;;;;;;5015061;28;20072;-74
2022/12/14 01:29:41;;;;;;;43.72;24.35;;;-3.90;99.90;;;;;;5027691;28;20040;-75
2022/12/14 01:32:07;;;;;;;42.15;24.27;;;-4.00;99.90;;;;;;5028959;28;20037;-75
2022/12/14 01:34:32;;;;;;;43.90;24.27;;;-4.00;99.90;;;;;;5011222;28;20045;-74
2022/12/14 01:36:58;;;;;;;42.97;22.92;;;-3.50;99.90;;;;;;5011622;28;20591;-75
2022/12/14 01:39:24;;;;;;;41.22;22.73;;;-4.10;99.90;;;;;;5028817;28;20306;-75
2022/12/14 01:41:51;;;;;;;43.30;23.60;;;-4.10;99.90;;;;;;5029056;28;20044;-74
2022/12/14 01:44:17;;;;;;;41.75;22.48;;;-4.20;99.90;;;;;;5027767;28;20098;-74
2022/12/14 01:46:56;;;;;;;46.85;24.77;;;-4.20;99.90;;;;;;5010459;28;20037;-75
2022/12/14 01:49:32;;;;;;;42.47;23.77;;;-4.20;99.90;;;;;;5027871;28;20041;-75
2022/12/14 01:52:07;;;;;;;44.22;24.05;;;-4.30;99.90;;;;;;5029814;28;20037;-75
2022/12/14 01:54:41;;;;;;;45.63;23.88;;;-4.30;99.90;;;;;;5027498;28;20248;-74
2022/12/14 01:57:09;;;;;;;41.03;22.00;;;-4.40;99.90;;;;;;5026369;28;20048;-75
2022/12/14 01:59:39;;;;;;;40.55;22.85;;;-4.30;99.90;;;;;;5010555;28;20072;-75
2022/12/14 02:02:07;;;;;;;41.85;22.48;;;-3.30;99.90;;;;;;5029513;28;20051;-75
2022/12/14 02:04:36;;;;;;;43.63;22.67;;;-3.30;99.90;;;;;;5046366;28;20515;-75
2022/12/14 02:07:02;;;;;;;47.08;23.65;;;-4.50;99.90;;;;;;5012348;28;20123;-75
2022/12/14 02:09:31;;;;;;;42.20;23.50;;;-2.70;99.90;;;;;;5013386;28;20113;-74
2022/12/14 02:12:05;;;;;;;42.50;23.10;;;-4.60;99.90;;;;;;5026907;28;20513;-75
2022/12/14 02:14:32;;;;;;;44.00;22.52;;;-4.60;99.90;;;;;;5026199;28;20055;-74
2022/12/14 02:16:59;;;;;;;42.33;22.88;;;-3.60;99.90;;;;;;5007555;28;20056;-76
2022/12/14 02:19:24;;;;;;;45.90;22.67;;;-4.70;99.90;;;;;;5008556;28;20036;-75
2022/12/14 02:22:11;;;;;;;46.22;23.40;;;-4.70;99.90;;;;;;5043041;28;20034;-74
2022/12/14 02:24:53;;;;;;;42.83;23.13;;;-4.90;99.90;;;;;;5026463;28;20036;-74
2022/12/14 02:28:03;;;;;;;42.90;22.73;;;-4.10;99.90;;;;;;5026338;28;20181;-75
2022/12/14 02:30:35;;;;;;;43.58;22.50;;;-4.80;99.90;;;;;;4918271;28;20175;-74
2022/12/14 02:33:34;;;;;;;41.55;21.85;;;-4.80;99.90;;;;;;5000066;28;20132;-75
2022/12/14 02:36:27;;;;;;;40.20;21.95;;;-4.80;99.90;;;;;;5009979;28;20469;-75
2022/12/14 02:39:05;;;;;;;44.10;23.33;;;-4.40;99.90;;;;;;5027296;28;20044;-75
2022/12/14 02:41:46;;;;;;;42.08;21.88;;;-4.90;99.90;;;;;;5029591;28;20041;-75
2022/12/14 02:44:33;;;;;;;43.50;22.83;;;-4.90;99.90;;;;;;5027267;28;20036;-74
2022/12/14 02:47:05;;;;;;;43.13;22.33;;;-4.90;99.90;;;;;;5027097;28;20092;-74
2022/12/14 02:50:01;;;;;;;40.03;22.13;;;-3.80;99.90;;;;;;5024675;28;20033;-75
2022/12/14 02:52:32;;;;;;;45.63;23.88;;;-4.90;99.90;;;;;;5007229;28;20064;-73
2022/12/14 02:55:10;;;;;;;45.88;23.40;;;-5.00;99.90;;;;;;5029425;28;20394;-76
2022/12/14 02:57:47;;;;;;;44.38;23.75;;;-5.00;99.90;;;;;;5026302;28;20049;-75
2022/12/14 03:00:13;;;;;;;46.55;23.85;;;-5.00;99.90;;;;;;5022253;28;20071;-75
2022/12/14 03:02:42;;;;;;;47.83;22.95;;;-5.00;99.90;;;;;;5023772;28;20080;-74
2022/12/14 03:05:09;;;;;;;42.63;22.90;;;-4.40;99.90;;;;;;5027035;28;20036;-73
2022/12/14 03:07:37;;;;;;;41.22;22.02;;;-5.00;99.90;;;;;;5023929;28;20087;-74
2022/12/14 03:10:06;;;;;;;45.80;23.05;;;-5.00;99.90;;;;;;5026451;28;20043;-75
2022/12/14 03:12:38;;;;;;;44.28;23.02;;;-5.00;99.90;;;;;;5010936;28;20400;-74
2022/12/14 03:15:07;;;;;;;43.90;23.83;;;-5.10;99.90;;;;;;5005459;28;20037;-74
2022/12/14 03:17:33;;;;;;;45.47;22.67;;;-5.10;99.90;;;;;;5010787;28;20048;-74
2022/12/14 03:20:09;;;;;;;43.90;22.60;;;-5.10;99.90;;;;;;5008197;28;20149;-74
2022/12/14 03:22:50;;;;;;;43.42;22.02;;;-5.10;99.90;;;;;;5025077;28;20040;-74
2022/12/14 03:25:45;;;;;;;47.00;22.73;;;-5.10;99.90;;;;;;5038546;28;20037;-74
2022/12/14 03:28:42;;;;;;;40.70;22.58;;;-5.10;99.90;;;;;;5042577;28;20056;-74
2022/12/14 03:31:32;;;;;;;42.13;22.60;;;-5.20;99.90;;;;;;5023554;28;20479;-74
2022/12/14 03:34:01;;;;;;;43.38;21.85;;;-5.20;99.90;;;;;;5027558;28;20044;-73
2022/12/14 03:36:53;;;;;;;45.80;23.83;;;-5.20;99.90;;;;;;5021248;28;20102;-74
2022/12/14 03:39:27;;;;;;;43.00;22.00;;;-5.20;99.90;;;;;;5023109;28;20045;-74
2022/12/14 03:41:55;;;;;;;45.53;22.52;;;-5.30;99.90;;;;;;5023654;28;20029;-73
2022/12/14 03:44:31;;;;;;;44.03;23.25;;;-4.40;99.90;;;;;;5025471;28;21525;-74
2022/12/14 03:47:13;;;;;;;43.67;21.85;;;-5.30;99.90;;;;;;5025049;28;20035;-74
2022/12/14 03:49:58;;;;;;;40.17;21.55;;;-5.40;99.90;;;;;;5027222;28;20095;-75
2022/12/14 03:52:34;;;;;;;41.17;22.08;;;-5.40;99.90;;;;;;5011856;28;20041;-74
2022/12/14 03:55:19;;;;;;;36.72;19.75;;;-5.50;99.90;;;;;;5025535;28;20047;-75
2022/12/14 03:58:09;;;;;;;41.92;22.80;;;-5.50;99.90;;;;;;5021522;28;20083;-75
2022/12/14 04:01:04;;;;;;;43.35;21.95;;;-5.50;99.90;;;;;;5011122;28;21078;-75
2022/12/14 04:03:58;;;;;;;41.63;21.40;;;-5.60;99.90;;;;;;5023126;28;20498;-74
2022/12/14 04:06:52;;;;;;;41.58;21.65;;;-5.60;99.90;;;;;;5043709;28;20483;-73
2022/12/14 04:09:33;;;;;;;45.17;22.13;;;-5.60;99.90;;;;;;5007681;28;20044;-75
2022/12/14 04:21:27;;;;;;;43.92;20.85;;;-5.60;99.90;;;;;;5028036;28;20041;-74
2022/12/14 04:26:54;;;;;;;41.53;21.48;;;-5.70;99.90;;;;;;5047270;28;20482;-74
2022/12/14 04:32:18;;;;;;;40.28;21.50;;;-5.80;99.90;;;;;;5047856;28;20052;-73
2022/12/14 04:34:49;;;;;;;42.33;21.00;;;-5.80;99.90;;;;;;5026200;28;20029;-74
2022/12/14 04:37:19;;;;;;;45.22;22.17;;;-5.80;99.90;;;;;;5012632;28;20785;-74
2022/12/14 04:39:50;;;;;;;41.88;21.90;;;-5.90;99.90;;;;;;5030295;28;20056;-75
2022/12/14 04:42:19;;;;;;;43.90;22.92;;;-5.80;99.90;;;;;;5010915;28;20049;-75
2022/12/14 04:44:54;;;;;;;40.42;22.40;;;-5.80;99.90;;;;;;5027414;28;20053;-73
2022/12/14 04:47:27;;;;;;;41.17;20.92;;;-5.80;99.90;;;;;;5029291;28;20061;-74
2022/12/14 04:50:02;;;;;;;42.63;21.92;;;-5.90;99.90;;;;;;5013928;28;20418;-74
2022/12/14 04:52:39;;;;;;;41.08;20.80;;;-5.90;99.90;;;;;;5012198;28;20033;-74
2022/12/14 04:55:16;;;;;;;39.78;21.13;;;-6.20;99.90;;;;;;5027936;28;20048;-73
2022/12/14 04:58:16;;;;;;;44.40;22.38;;;-5.90;99.90;;;;;;5013177;28;20036;-74
2022/12/14 05:01:02;;;;;;;42.97;21.70;;;-5.90;99.90;;;;;;5029334;28;20140;-73
2022/12/14 05:03:34;;;;;;;41.78;20.63;;;-5.90;99.90;;;;;;5028881;28;20094;-73
2022/12/14 05:06:03;;;;;;;44.67;22.58;;;-6.00;99.90;;;;;;4997153;28;20107;-74
2022/12/14 05:09:02;;;;;;;41.90;21.90;;;-5.90;99.90;;;;;;5027753;28;20047;-73
2022/12/14 05:11:38;;;;;;;41.78;21.83;;;-7.60;99.90;;;;;;5029299;28;20095;-74
2022/12/14 05:14:11;;;;;;;45.53;22.05;;;-5.90;99.90;;;;;;5050128;28;20486;-75
2022/12/14 05:16:37;;;;;;;46.00;22.17;;;-5.90;99.90;;;;;;5025094;28;20051;-74
2022/12/14 05:19:09;;;;;;;47.65;23.63;;;-6.10;99.90;;;;;;5012030;28;20091;-74
2022/12/14 05:21:48;;;;;;;44.08;22.35;;;-5.90;99.90;;;;;;5024721;28;20049;-75
2022/12/14 05:24:15;;;;;;;46.55;22.40;;;-5.90;99.90;;;;;;5045546;28;20036;-74
2022/12/14 05:26:41;;;;;;;45.67;22.45;;;-5.90;99.90;;;;;;5025489;28;20051;-73
2022/12/14 05:29:07;;;;;;;43.50;22.33;;;-4.60;99.90;;;;;;5027101;28;20095;-73
2022/12/14 05:31:33;;;;;;;45.78;22.67;;;-5.80;99.90;;;;;;5026136;28;20493;-73
2022/12/14 05:33:58;;;;;;;42.00;22.52;;;-5.90;99.90;;;;;;5008716;28;20041;-74
2022/12/14 05:36:24;;;;;;;43.88;22.90;;;-5.90;99.90;;;;;;5011639;28;20120;-73
2022/12/14 05:38:50;;;;;;;44.20;22.08;;;-5.90;99.90;;;;;;5014872;28;20037;-74
2022/12/14 05:41:16;;;;;;;41.55;22.67;;;;;;;;;;5026121;28;20449;-74
2022/12/14 05:43:42;;;;;;;43.53;22.00;;;-5.90;99.90;;;;;;5011094;28;20044;-73
2022/12/14 05:46:10;;;;;;;44.83;22.48;;;-5.90;99.90;;;;;;5024561;28;20102;-73
2022/12/14 05:48:36;;;;;;;43.30;22.60;;;-6.00;99.90;;;;;;5043756;28;20044;-73
2022/12/14 05:51:06;;;;;;;39.97;20.92;;;-6.00;99.90;;;;;;5027313;28;20033;-74
2022/12/14 05:53:33;;;;;;;46.95;22.35;;;-6.70;99.90;;;;;;5021505;28;20057;-74
2022/12/14 05:55:59;;;;;;;42.35;21.25;;;-5.90;99.90;;;;;;5003995;28;20061;-73
2022/12/14 05:58:25;;;;;;;43.88;21.48;;;-5.40;99.90;;;;;;5025996;28;21797;-73
2022/12/14 06:00:50;;;;;;;42.72;21.10;;;-6.10;99.90;;;;;;5010077;28;20482;-73
2022/12/14 06:03:16;;;;;;;40.55;21.05;;;-7.30;99.90;;;;;;4986900;28;20514;-74
2022/12/14 06:05:42;;;;;;;39.20;21.35;;;-6.00;99.90;;;;;;5022074;28;20495;-73
2022/12/14 06:08:11;;;;;;;42.17;21.27;;;-4.70;99.90;;;;;;5021652;28;20286;-73
2022/12/14 06:10:36;;;;;;;42.90;21.38;;;-6.10;99.90;;;;;;5040547;28;20433;-74
2022/12/14 06:13:02;;;;;;;40.28;20.48;;;-6.00;99.90;;;;;;5024344;28;20041;-74
2022/12/14 06:15:28;;;;;;;41.83;21.05;;;-4.90;99.90;;;;;;5024383;28;20079;-73
2022/12/14 06:17:56;;;;;;;47.17;22.23;;;-6.10;99.90;;;;;;5025542;28;20083;-74
2022/12/14 06:20:22;;;;;;;48.20;22.90;;;-6.20;99.90;;;;;;5025076;28;20041;-74
2022/12/14 06:22:47;;;;;;;43.40;21.75;;;-6.20;99.90;;;;;;5007777;28;20509;-74
2022/12/14 06:25:14;;;;;;;46.65;23.13;;;-4.90;99.90;;;;;;5008736;28;20047;-74
2022/12/14 06:27:39;;;;;;;47.28;20.00;;;-6.20;99.90;;;;;;5019916;28;20049;-73
2022/12/14 06:30:06;;;;;;;39.38;21.55;;;-6.40;99.90;;;;;;5022374;28;20522;-73
2022/12/14 06:32:31;;;;;;;41.65;20.77;;;-6.30;99.90;;;;;;5021593;28;20534;-73
2022/12/14 06:34:57;;;;;;;42.78;22.02;;;-5.20;99.90;;;;;;5018565;28;20045;-74
2022/12/14 06:37:23;;;;;;;42.55;21.90;;;-6.20;99.90;;;;;;5043695;28;20041;-74
2022/12/14 06:39:49;;;;;;;43.83;22.35;;;-6.30;99.90;;;;;;5025046;28;20041;-73
2022/12/14 06:42:17;;;;;;;47.55;23.42;;;-6.30;99.90;;;;;;5008952;28;20469;-73
2022/12/14 06:44:43;;;;;;;44.33;22.80;;;-6.20;99.90;;;;;;5011885;28;20033;-74
2022/12/14 06:47:12;;;;;;;45.28;23.83;;;-6.30;99.90;;;;;;4992973;28;20147;-74
2022/12/14 06:49:38;;;;;;;46.42;22.40;;;-6.40;99.90;;;;;;5026190;28;20136;-74
2022/12/14 06:52:04;;;;;;;46.00;21.08;;;-6.40;99.90;;;;;;5024582;28;20048;-74
2022/12/14 06:54:29;;;;;;;43.35;21.58;;;-6.40;99.90;;;;;;5020532;28;20040;-75
2022/12/14 06:56:56;;;;;;;37.70;20.15;;;;;;;;;;5042074;28;21491;-74
2022/12/14 06:59:30;;;;;;;42.35;21.35;;;-6.40;99.90;;;;;;5006859;28;20041;-74
2022/12/14 07:01:56;;;;;;;42.03;21.90;;;-6.50;99.90;;;;;;5028218;28;20030;-74
2022/12/14 07:04:23;;;;;;;42.75;21.35;;;-4.90;99.90;;;;;;5024897;28;20039;-74
2022/12/14 07:06:49;;;;;;;43.28;21.63;;;-6.50;99.90;;;;;;5026079;28;20047;-74
2022/12/14 07:09:14;;;;;;;42.35;20.38;;;-6.40;99.90;;;;;;4991871;28;20410;-73
2022/12/14 07:11:40;;;;;;;41.38;20.45;;;-6.50;99.90;;;;;;5025374;28;20142;-75
2022/12/14 07:14:09;;;;;;;43.15;20.52;;;-6.40;99.90;;;;;;5031447;28;20041;-74
2022/12/14 07:16:35;;;;;;;44.33;21.63;;;-6.60;99.90;;;;;;5019156;28;20044;-74
2022/12/14 07:19:02;;;;;;;46.78;22.30;;;-6.50;99.90;;;;;;5028729;28;20142;-74
2022/12/14 07:21:28;;;;;;;43.95;22.25;;;-6.50;99.90;;;;;;5006962;28;20096;-73
2022/12/14 07:23:54;;;;;;;39.95;20.65;;;;;;;;;;4992520;28;20138;-72
2022/12/14 07:26:23;;;;;;;42.28;21.55;;;-6.50;99.90;;;;;;5007243;28;20057;-74
2022/12/14 07:28:50;;;;;;;46.72;22.10;;;-6.50;99.90;;;;;;5021233;28;21275;-74
2022/12/14 07:31:20;;;;;;;41.67;21.00;;;-6.50;99.90;;;;;;5007955;28;20033;-72
2022/12/14 07:33:53;;;;;;;38.25;19.90;;;-6.60;99.90;;;;;;5023601;28;20040;-76
2022/12/14 07:36:21;;;;;;;41.88;21.23;;;-6.60;99.90;;;;;;5043834;28;20033;-73
2022/12/14 07:38:48;;;;;;;42.03;20.88;;;-6.60;99.90;;;;;;5007393;28;20503;-74
2022/12/14 07:41:17;;;;;;;43.88;20.88;;;-6.60;99.90;;;;;;5024840;28;20113;-74
2022/12/14 07:43:43;;;;;;;42.20;20.67;;;-6.60;99.90;;;;;;5007786;28;20105;-74
2022/12/14 07:46:15;;;;;;;42.10;20.50;;;-4.80;99.90;;;;;;4985238;28;20514;-74
2022/12/14 07:48:49;;;;;;;39.15;19.92;;;-4.40;99.90;;;;;;5008686;28;20132;-74
2022/12/14 07:51:18;;;;;;;39.50;19.70;;;-6.00;99.90;;;;;;5022608;28;20171;-74
2022/12/14 07:53:46;;;;;;;39.72;20.25;;;-6.90;99.90;;;;;;5022066;28;20419;-73
2022/12/14 07:56:24;;;;;;;40.72;20.02;;;-6.70;99.90;;;;;;5004699;28;20577;-74
2022/12/14 07:58:50;;;;;;;40.70;20.55;;;-6.60;99.90;;;;;;5035662;28;20189;-74
2022/12/14 08:01:22;;;;;;;41.10;20.85;;;-6.60;99.90;;;;;;5016415;28;20041;-76
2022/12/14 08:04:00;;;;;;;42.43;19.80;;;-6.50;99.90;;;;;;5023350;28;20506;-74
2022/12/14 08:06:28;;;;;;;40.55;21.15;;;-6.50;99.90;;;;;;5004251;28;20502;-74
2022/12/14 08:08:54;;;;;;;43.65;20.50;;;-6.40;99.90;;;;;;5020847;28;20526;-74
2022/12/14 08:11:21;;;;;;;42.97;21.35;;;-6.50;99.90;;;;;;5018830;28;20072;-74
2022/12/14 08:13:51;;;;;;;40.88;20.13;;;-6.40;99.90;;;;;;5018655;28;20060;-75
2022/12/14 08:16:17;;;;;;;41.83;19.67;;;-6.50;99.90;;;;;;5024617;28;20037;-73
2022/12/14 08:18:43;;;;;;;45.13;20.90;;;-6.50;99.90;;;;;;5003336;28;20047;-74
2022/12/14 08:21:11;;;;;;;42.42;21.73;;;-6.30;99.90;;;;;;5026618;28;20472;-75
2022/12/14 08:23:38;;;;;;;44.72;20.92;;;-6.40;99.90;;;;;;4987691;28;20144;-74
2022/12/14 08:26:08;;;;;;;42.08;20.10;;;-6.20;99.90;;;;;;5023676;28;20039;-74
2022/12/14 08:28:39;;;;;;;37.25;19.17;;;-6.20;99.90;;;;;;5041741;28;20537;-73
2022/12/14 08:31:08;;;;;;;43.85;21.40;;;-6.30;99.90;;;;;;5024623;28;20056;-73
2022/12/14 08:33:35;;;;;;;40.28;20.95;;;-6.10;99.90;;;;;;5021124;28;20047;-73
2022/12/14 08:36:18;;;;;;;40.08;19.60;;;-6.10;99.90;;;;;;4983951;28;20523;-73
2022/12/14 08:38:44;;;;;;;;;;;-5.70;99.90;;;;;;5018462;28;20293;-74
2022/12/14 08:41:13;;;;;;;38.88;18.50;;;-5.90;99.90;;;;;;5023763;28;19966;-74
2022/12/14 08:43:39;;;;;;;41.13;20.48;;;-5.90;99.90;;;;;;5019055;28;20080;-74
2022/12/14 08:46:07;;;;;;;40.45;19.38;;;-5.80;99.90;;;;;;5043151;28;20048;-74
2022/12/14 08:48:33;;;;;;;41.00;20.45;;;-5.80;99.90;;;;;;5025531;28;20044;-73
2022/12/14 08:51:06;;;;;;;41.15;20.50;;;-5.70;99.90;;;;;;5021999;28;20040;-74
2022/12/14 08:53:33;;;;;;;41.53;20.65;;;-5.70;99.90;;;;;;5023688;28;20025;-74
2022/12/14 08:56:03;;;;;;;43.55;21.20;;;-5.50;99.90;;;;;;5008744;28;20041;-74
2022/12/14 08:58:29;;;;;;;39.55;19.98;;;-5.50;99.90;;;;;;5027545;28;20052;-74
2022/12/14 09:01:06;;;;;;;43.38;20.92;;;-5.50;99.90;;;;;;5028720;28;20040;-74
2022/12/14 09:03:33;;;;;;;40.15;19.85;;;-5.40;99.90;;;;;;5020535;28;20043;-74
2022/12/14 09:06:04;;;;;;;43.05;20.50;;;-5.30;99.90;;;;;;5027707;28;20047;-74
2022/12/14 09:08:33;;;;;;;41.08;20.75;;;-5.30;99.90;;;;;;5023047;28;20051;-74
2022/12/14 09:11:00;;;;;;;41.55;19.85;;;-5.10;99.90;;;;;;5025922;28;20037;-73
2022/12/14 09:13:26;;;;;;;42.42;20.45;;;-5.10;99.90;;;;;;4994014;28;20033;-73
2022/12/14 09:16:19;;;;;;;43.08;20.83;;;-5.00;99.90;;;;;;5028485;28;20094;-72
2022/12/14 09:18:46;;;;;;;42.42;20.63;;;-4.20;99.90;;;;;;5043220;28;20128;-73
2022/12/14 09:21:12;;;;;;;39.75;19.58;;;-4.80;99.90;;;;;;5030302;28;20040;-74
2022/12/14 09:23:39;;;;;;;42.90;20.67;;;-4.00;99.90;;;;;;5009237;28;20045;-74
2022/12/14 09:26:12;;;;;;;40.33;20.48;;;-4.70;99.90;;;;;;5009093;28;20176;-74
2022/12/14 09:28:40;;;;;;;43.20;20.50;;;-4.60;99.90;;;;;;5006752;28;20046;-75
2022/12/14 09:31:10;;;;;;;40.08;19.52;;;-4.50;99.90;;;;;;5024643;28;20045;-73
2022/12/14 09:33:37;;;;;;;40.13;20.63;;;-4.50;99.90;;;;;;5006204;28;20085;-74
2022/12/14 09:36:07;;;;;;;41.90;20.27;;;-4.40;99.90;;;;;;5005234;28;20041;-74
2022/12/14 09:38:36;;;;;;;36.72;19.05;;;-4.30;99.90;;;;;;5018659;28;20037;-74
2022/12/14 09:41:05;;;;;;;40.50;19.85;;;-4.20;99.90;;;;;;5024154;28;20091;-73
2022/12/14 09:43:42;;;;;;;41.35;20.35;;;-4.10;99.90;;;;;;5007512;28;20041;-73
2022/12/14 09:46:14;;;;;;;42.20;21.13;;;-4.20;99.90;;;;;;5021863;28;20053;-74
2022/12/14 09:48:41;;;;;;;37.70;19.60;;;-4.00;99.90;;;;;;5010342;28;20127;-72
2022/12/14 09:51:13;;;;;;;40.63;19.98;;;-4.00;99.90;;;;;;5022052;28;20048;-73
2022/12/14 09:53:41;;;;;;;39.80;20.75;;;-3.30;99.90;;;;;;5020727;28;20052;-74
2022/12/14 09:56:13;;;;;;;40.55;19.02;;;-3.90;99.90;;;;;;5005422;28;21119;-74
2022/12/14 09:58:50;;;;;;;40.63;19.95;;;-4.00;99.90;;;;;;5006358;28;20088;-74
2022/12/14 10:01:22;;;;;;;36.60;19.35;;;-3.50;99.90;;;;;;5022531;28;20122;-73
2022/12/14 10:04:21;;;;;;;39.42;19.33;;;-3.70;99.90;;;;;;5022859;28;20033;-73
2022/12/14 10:06:48;;;;;;;38.13;18.77;;;;;;;;;;5006473;28;20092;-74
2022/12/14 10:09:43;;;;;;;38.67;19.02;;;-3.60;99.90;;;;;;5023241;28;20483;-74
2022/12/14 10:12:22;;;;;;;36.75;18.92;;;-3.50;99.90;;;;;;5004885;28;20037;-73
2022/12/14 10:14:57;;;;;;;40.08;18.80;;;;;;;;;;5011112;28;20057;-73
2022/12/14 10:17:32;;;;;;;39.67;19.58;;;-3.40;99.90;;;;;;5021629;28;20053;-75
2022/12/14 10:20:28;;;;;;;36.10;19.90;;;-3.30;99.90;;;;;;5007948;28;20264;-75
2022/12/14 10:22:55;;;;;;;33.83;18.08;;;-3.00;99.90;;;;;;5005962;28;20037;-73
2022/12/14 10:25:28;;;;;;;40.25;19.67;;;-3.10;99.90;;;;;;5024299;28;20565;-73
2022/12/14 10:28:04;;;;;;;34.63;17.83;;;-3.20;99.90;;;;;;5022760;28;20057;-73
2022/12/14 10:30:30;;;;;;;35.38;18.02;;;-3.00;99.90;;;;;;5023233;28;20061;-73
2022/12/14 10:33:29;;;;;;;34.88;18.02;;;-2.50;99.90;;;;;;4986107;28;20121;-74
2022/12/14 10:35:58;;;;;;;37.45;18.55;;;-3.00;99.90;;;;;;5025532;28;20060;-74
2022/12/14 10:38:40;;;;;;;37.10;17.48;;;-2.80;99.90;;;;;;5020548;28;20042;-74
2022/12/14 10:41:42;;;;;;;30.88;15.93;;;-2.60;99.90;;;;;;5023473;28;20075;-74
2022/12/14 10:44:27;;;;;;;31.80;15.63;;;-2.60;99.90;;;;;;5022603;28;20076;-74
2022/12/14 10:47:15;;;;;;;29.13;14.98;;;-2.60;99.90;;;;;;5024242;28;20037;-75
2022/12/14 10:49:56;;;;;;;33.15;15.35;;;-2.50;99.90;;;;;;5019518;28;20195;-74
2022/12/14 10:52:32;;;;;;;29.48;14.88;;;-3.50;99.90;;;;;;5019616;28;20518;-75
2022/12/14 10:55:03;;;;;;;28.13;14.40;;;-0.90;99.90;;;;;;5023193;28;20506;-75
2022/12/14 10:57:29;;;;;;;29.83;15.70;;;-2.40;99.90;;;;;;5005101;28;20041;-75
2022/12/14 10:59:55;;;;;;;30.30;15.38;;;-2.30;99.90;;;;;;5021731;28;20630;-75
2022/12/14 11:02:26;;;;;;;32.47;15.77;;;-2.40;99.90;;;;;;5019905;28;20079;-74
2022/12/14 11:04:58;;;;;;;31.80;16.00;;;-2.00;99.90;;;;;;5014972;28;20394;-75
2022/12/14 11:07:37;;;;;;;32.78;15.65;;;-2.10;99.90;;;;;;5029560;28;20051;-76
2022/12/14 11:10:27;;;;;;;32.70;16.40;;;-2.00;99.90;;;;;;5050079;28;20051;-76
2022/12/14 11:13:02;;;;;;;32.47;15.93;;;-1.90;99.90;;;;;;5048976;28;20629;-76
2022/12/14 11:15:39;;;;;;;33.55;16.40;;;-2.80;99.90;;;;;;5027472;28;20041;-76
2022/12/14 11:18:11;;;;;;;34.25;15.70;;;-1.60;99.90;;;;;;5028184;28;20112;-76
2022/12/14 11:20:51;;;;;;;33.15;15.88;;;-1.90;99.90;;;;;;5018677;28;20055;-76
2022/12/14 11:23:37;;;;;;;34.13;17.02;;;-1.50;99.90;;;;;;5028435;28;20069;-76
2022/12/14 11:26:08;;;;;;;30.45;16.08;;;-0.90;99.90;;;;;;5008636;28;20049;-77
2022/12/14 11:28:50;;;;;;;31.48;14.93;;;0.00;99.90;;;;;;5011931;28;20064;-78
2022/12/14 11:31:29;;;;;;;29.45;14.90;;;0.30;99.90;;;;;;5003849;28;20119;-77
2022/12/14 11:34:03;;;;;;;28.92;14.63;;;-1.70;99.90;;;;;;5021790;28;20033;-79
2022/12/14 11:36:37;;;;;;;29.00;14.18;;;-1.80;99.90;;;;;;5025381;28;20641;-79
2022/12/14 11:39:12;;;;;;;27.35;13.90;;;-1.60;99.90;;;;;;5004488;28;20041;-78
2022/12/14 11:41:45;;;;;;;26.67;13.18;;;-1.50;99.90;;;;;;5024252;28;20045;-78
2022/12/14 11:44:17;;;;;;;27.98;13.23;;;-1.50;99.90;;;;;;5001859;28;20149;-79
2022/12/14 11:46:51;;;;;;;27.15;14.15;;;-1.40;99.90;;;;;;5028956;28;20327;-79
2022/12/14 11:49:38;;;;;;;22.25;12.15;;;-1.40;99.90;;;;;;5027230;28;20052;-79
2022/12/14 11:52:04;;;;;;;25.85;12.35;;;-1.30;99.90;;;;;;5025707;28;20091;-80
2022/12/14 11:54:35;;;;;;;24.23;12.20;;;-1.60;99.90;;;;;;5039170;28;20045;-78
2022/12/14 11:57:13;;;;;;;23.90;12.13;;;-1.10;99.90;;;;;;5012581;28;20038;-80
2022/12/14 11:59:53;;;;;;;25.40;11.85;;;-1.10;99.90;;;;;;5022291;28;20050;-80
2022/12/14 12:02:38;;;;;;;25.77;12.75;;;-1.20;99.90;;;;;;5026613;28;20173;-80
2022/12/14 12:05:16;;;;;;;24.60;12.73;;;-1.10;99.90;;;;;;5014966;28;20199;-79
2022/12/14 12:07:48;;;;;;;24.70;13.10;;;0.70;99.90;;;;;;5024811;28;20517;-80
2022/12/14 12:10:21;;;;;;;26.48;13.02;;;-1.10;99.90;;;;;;5014394;28;20045;-79
2022/12/14 12:13:02;;;;;;;26.80;13.38;;;-0.90;99.90;;;;;;5026626;28;20034;-79
2022/12/14 12:15:33;;;;;;;25.10;12.52;;;-0.90;99.90;;;;;;5018271;28;20041;-78
2022/12/14 12:18:05;;;;;;;29.27;13.30;;;-0.40;99.90;;;;;;5022617;28;20055;-79
2022/12/14 12:20:38;;;;;;;25.65;12.85;;;-0.70;99.90;;;;;;5021005;28;20053;-78
2022/12/14 12:23:18;;;;;;;26.08;13.05;;;-0.70;99.90;;;;;;5019591;28;20471;-80
2022/12/14 12:25:47;;;;;;;26.98;13.13;;;-0.70;99.90;;;;;;5005342;28;20080;-78
2022/12/14 12:28:19;;;;;;;25.50;12.88;;;-0.70;99.90;;;;;;5021793;28;20645;-79
2022/12/14 12:30:50;;;;;;;25.63;12.18;;;-0.70;99.90;;;;;;5021581;28;20242;-79
2022/12/14 12:33:46;;;;;;;24.77;12.38;;;-0.70;99.90;;;;;;5010122;28;20048;-78
2022/12/14 12:36:17;;;;;;;25.15;13.07;;;-0.70;99.90;;;;;;5041475;28;20049;-78
2022/12/14 12:39:00;;;;;;;24.33;12.32;;;-2.40;99.90;;;;;;5008525;28;20044;-79
2022/12/14 12:41:40;;;;;;;23.17;11.93;;;-0.60;99.90;;;;;;5024835;28;20088;-77
2022/12/14 12:44:57;;;;;;;24.27;11.82;;;-0.60;99.90;;;;;;5026818;28;20505;-78
2022/12/14 12:47:44;;;;;;;24.63;11.55;;;-0.50;99.90;;;;;;4967843;28;20046;-78
2022/12/14 12:50:20;;;;;;;23.83;12.30;;;-0.50;99.90;;;;;;5023117;28;20049;-78
2022/12/14 12:53:19;;;;;;;23.23;11.85;;;-0.50;99.90;;;;;;5025878;28;20132;-79
2022/12/14 12:55:56;;;;;;;24.92;12.30;;;-0.50;99.90;;;;;;5028651;28;20041;-80
2022/12/14 12:58:27;;;;;;;24.27;12.15;;;-0.90;99.90;;;;;;5008249;28;20104;-79
2022/12/14 13:00:56;;;;;;;22.27;11.48;;;-0.40;99.90;;;;;;5026599;28;20050;-79
2022/12/14 13:03:26;;;;;;;23.83;11.32;;;-0.40;99.90;;;;;;5025410;28;20545;-79
2022/12/14 13:05:54;;;;;;;23.77;11.82;;;-0.40;99.90;;;;;;5026355;28;20148;-79
2022/12/14 13:08:30;;;;;;;22.52;11.07;;;-0.40;99.90;;;;;;5025896;28;20529;-80
2022/12/14 13:10:59;;;;;;;24.08;11.50;;;-0.30;99.90;;;;;;5007615;28;20106;-79